createdAt,value
2019-06-01T00:02:13.067Z,70.90
2019-06-01T00:04:40.934Z,70.60
2019-06-01T00:07:07.635Z,70.60
2019-06-01T00:09:34.156Z,70.40
2019-06-01T00:12:00.703Z,70.40
2019-06-01T00:14:27.224Z,70.40
2019-06-01T00:16:53.811Z,70.60
2019-06-01T00:19:20.479Z,70.70
2019-06-01T00:21:47.423Z,70.80
2019-06-01T00:24:14.015Z,70.80
2019-06-01T00:26:41.681Z,71.10
2019-06-01T00:29:08.383Z,71.20
2019-06-01T00:31:34.930Z,71.40
2019-06-01T00:34:01.701Z,71.30
2019-06-01T00:36:28.232Z,71.30
2019-06-01T00:38:54.771Z,71.00
2019-06-01T00:41:21.353Z,71.20
2019-06-01T00:43:48.749Z,71.10
2019-06-01T00:46:15.474Z,71.00
2019-06-01T00:48:43.782Z,71.00
2019-06-01T00:51:10.421Z,71.10
2019-06-01T00:53:36.942Z,70.90
2019-06-01T00:56:03.567Z,70.90
2019-06-01T00:58:30.102Z,70.70
2019-06-01T01:00:56.642Z,70.70
2019-06-01T01:03:23.240Z,70.60
2019-06-01T01:05:50.674Z,70.80
2019-06-01T01:08:17.905Z,70.80
2019-06-01T01:10:44.812Z,70.80
2019-06-01T01:13:13.372Z,71.40
2019-06-01T01:15:39.905Z,70.50
2019-06-01T01:18:07.546Z,70.70
2019-06-01T01:20:36.428Z,70.80
2019-06-01T01:23:04.872Z,70.90
2019-06-01T01:25:31.407Z,70.80
2019-06-01T01:27:58.007Z,71.00
2019-06-01T01:30:24.521Z,71.20
2019-06-01T01:32:51.740Z,70.90
2019-06-01T01:35:18.435Z,70.80
2019-06-01T01:37:44.980Z,71.00
2019-06-01T01:40:11.697Z,71.00
2019-06-01T01:42:38.231Z,70.90
2019-06-01T01:45:07.710Z,70.90
2019-06-01T01:47:34.255Z,70.70
2019-06-01T01:50:00.805Z,70.70
2019-06-01T01:52:27.415Z,70.70
2019-06-01T01:54:54.710Z,70.60
2019-06-01T01:57:21.284Z,70.70
2019-06-01T01:59:47.797Z,70.30
2019-06-01T02:02:14.333Z,70.50
2019-06-01T02:04:40.846Z,70.30
2019-06-01T02:07:07.379Z,70.40
2019-06-01T02:09:33.895Z,70.50
2019-06-01T02:12:01.848Z,70.40
2019-06-01T02:14:28.519Z,70.30
2019-06-01T02:16:56.243Z,70.30
2019-06-01T02:19:22.921Z,70.30
2019-06-01T02:21:49.462Z,70.30
2019-06-01T02:24:15.980Z,70.00
2019-06-01T02:26:42.518Z,70.50
2019-06-01T02:29:09.090Z,70.30
2019-06-01T02:31:41.474Z,70.20
2019-06-01T02:34:06.182Z,70.10
2019-06-01T02:36:32.597Z,70.20
2019-06-01T02:39:00.900Z,70.00
2019-06-01T02:41:27.559Z,70.00
2019-06-01T02:43:54.761Z,69.90
2019-06-01T02:46:21.322Z,70.00
2019-06-01T02:48:47.860Z,70.00
2019-06-01T02:51:14.445Z,70.10
2019-06-01T02:53:40.981Z,70.00
2019-06-01T02:56:07.602Z,70.00
2019-06-01T02:58:34.184Z,70.20
2019-06-01T03:01:33.431Z,70.10
2019-06-01T03:04:03.417Z,70.20
2019-06-01T03:06:31.589Z,70.10
2019-06-01T03:09:01.695Z,70.10
2019-06-01T03:11:33.167Z,70.40
2019-06-01T03:14:04.262Z,70.20
2019-06-01T03:16:33.544Z,70.30
2019-06-01T03:19:01.697Z,70.20
2019-06-01T03:21:30.027Z,70.10
2019-06-01T03:24:02.293Z,70.30
2019-06-01T03:26:33.209Z,70.40
2019-06-01T03:29:00.789Z,70.40
2019-06-01T03:31:27.307Z,70.30
2019-06-01T03:33:53.846Z,70.40
2019-06-01T03:36:20.371Z,70.40
2019-06-01T03:38:47.520Z,70.50
2019-06-01T03:41:14.040Z,70.40
2019-06-01T03:43:40.668Z,70.50
2019-06-01T03:46:07.232Z,70.40
2019-06-01T03:48:33.765Z,70.40
2019-06-01T03:51:01.502Z,70.40
2019-06-01T03:53:28.304Z,70.30
2019-06-01T03:55:54.822Z,70.10
2019-06-01T03:58:21.360Z,70.40
2019-06-01T04:00:47.915Z,70.30
2019-06-01T04:03:14.435Z,70.40
2019-06-01T04:05:40.958Z,70.40
2019-06-01T04:08:07.605Z,70.30
2019-06-01T04:10:34.119Z,70.50
2019-06-01T04:13:01.435Z,70.50
2019-06-01T04:15:27.982Z,70.40
2019-06-01T04:17:54.590Z,70.20
2019-06-01T04:20:21.099Z,70.20
2019-06-01T04:22:47.626Z,70.30
2019-06-01T04:25:14.192Z,70.00
2019-06-01T04:27:40.711Z,70.10
2019-06-01T04:30:07.666Z,70.00
2019-06-01T04:32:48.820Z,70.70
2019-06-01T04:35:04.995Z,69.90
2019-06-01T04:37:31.511Z,69.70
2019-06-01T04:39:58.042Z,69.70
2019-06-01T04:42:24.562Z,69.60
2019-06-01T04:44:51.136Z,69.40
2019-06-01T04:47:17.665Z,69.30
2019-06-01T04:49:44.196Z,69.20
2019-06-01T04:52:11.917Z,69.20
2019-06-01T04:54:39.212Z,69.10
2019-06-01T04:57:06.793Z,69.00
2019-06-01T04:59:33.413Z,68.90
2019-06-01T05:01:59.934Z,68.80
2019-06-01T05:04:26.465Z,68.70
2019-06-01T05:06:53.034Z,68.60
2019-06-01T05:09:19.620Z,68.60
2019-06-01T05:11:46.148Z,68.40
2019-06-01T05:14:13.780Z,68.30
2019-06-01T05:16:40.506Z,68.30
2019-06-01T05:19:08.093Z,67.90
2019-06-01T05:21:34.676Z,67.80
2019-06-01T05:24:01.207Z,67.80
2019-06-01T05:26:27.774Z,67.70
2019-06-01T05:28:54.301Z,67.80
2019-06-01T05:31:25.087Z,67.70
2019-06-01T05:33:49.255Z,67.70
2019-06-01T05:36:16.264Z,67.40
2019-06-01T05:38:42.950Z,67.40
2019-06-01T05:41:10.378Z,67.20
2019-06-01T05:43:37.908Z,67.10
2019-06-01T05:46:04.443Z,67.00
2019-06-01T05:48:30.999Z,67.00
2019-06-01T05:50:57.615Z,66.70
2019-06-01T05:53:24.140Z,66.50
2019-06-01T05:55:50.678Z,66.30
2019-06-01T05:58:17.373Z,66.10
2019-06-01T06:00:44.282Z,66.30
2019-06-01T06:03:12.883Z,66.60
2019-06-01T06:05:39.226Z,66.40
2019-06-01T06:08:05.752Z,65.30
2019-06-01T06:10:32.278Z,65.30
2019-06-01T06:12:58.809Z,65.40
2019-06-01T06:15:25.435Z,65.50
2019-06-01T06:17:51.948Z,65.20
2019-06-01T06:20:18.488Z,64.10
2019-06-01T06:22:45.046Z,64.40
2019-06-01T06:25:14.000Z,64.30
2019-06-01T06:27:40.296Z,63.70
2019-06-01T06:30:07.234Z,63.40
2019-06-01T06:32:33.760Z,62.80
2019-06-01T06:35:00.280Z,63.10
2019-06-01T06:37:26.836Z,63.00
2019-06-01T06:39:53.359Z,62.70
2019-06-01T06:42:20.369Z,61.90
2019-06-01T06:44:46.939Z,61.40
2019-06-01T06:47:14.618Z,61.00
2019-06-01T06:49:41.405Z,60.60
2019-06-01T06:52:08.032Z,61.10
2019-06-01T06:54:34.588Z,61.10
2019-06-01T06:57:01.131Z,59.50
2019-06-01T06:59:27.661Z,59.50
2019-06-01T07:01:54.198Z,60.20
2019-06-01T07:04:21.385Z,60.10
2019-06-01T07:06:48.086Z,59.50
2019-06-01T07:09:14.626Z,59.60
2019-06-01T07:11:41.236Z,59.10
2019-06-01T07:14:08.500Z,58.30
2019-06-01T07:16:35.021Z,57.20
2019-06-01T07:19:01.667Z,58.30
2019-06-01T07:21:28.204Z,58.60
2019-06-01T07:23:54.747Z,58.60
2019-06-01T07:26:21.921Z,57.80
2019-06-01T07:28:48.633Z,56.90
2019-06-01T07:31:15.183Z,57.80
2019-06-01T07:33:41.707Z,56.90
2019-06-01T07:36:08.252Z,56.10
2019-06-01T07:38:34.786Z,56.50
2019-06-01T07:41:01.422Z,56.80
2019-06-01T07:43:28.979Z,56.20
2019-06-01T07:45:55.608Z,55.00
2019-06-01T07:48:23.086Z,55.50
2019-06-01T07:50:49.687Z,53.60
2019-06-01T07:53:16.222Z,53.20
2019-06-01T07:55:42.855Z,54.70
2019-06-01T07:58:09.412Z,55.40
2019-06-01T08:00:35.940Z,54.80
2019-06-01T08:03:03.384Z,54.20
2019-06-01T08:05:30.216Z,54.20
2019-06-01T08:07:56.786Z,53.50
2019-06-01T08:10:24.885Z,52.70
2019-06-01T08:12:53.234Z,52.30
2019-06-01T08:15:19.875Z,53.50
2019-06-01T08:17:46.520Z,53.10
2019-06-01T08:20:14.146Z,52.40
2019-06-01T08:22:40.709Z,51.40
2019-06-01T08:25:07.340Z,51.30
2019-06-01T08:27:35.896Z,51.50
2019-06-01T08:30:05.463Z,51.70
2019-06-01T08:32:32.898Z,51.70
2019-06-01T08:35:08.695Z,50.20
2019-06-01T08:37:29.294Z,50.70
2019-06-01T08:39:59.102Z,49.80
2019-06-01T08:42:25.319Z,49.80
2019-06-01T08:44:51.906Z,49.80
2019-06-01T08:47:18.444Z,49.60
2019-06-01T08:49:45.055Z,50.00
2019-06-01T08:52:11.614Z,49.80
2019-06-01T08:54:38.253Z,50.20
2019-06-01T08:57:07.127Z,50.50
2019-06-01T08:59:36.313Z,49.50
2019-06-01T09:02:02.995Z,49.40
2019-06-01T09:04:30.691Z,47.30
2019-06-01T09:06:57.264Z,48.50
2019-06-01T09:09:24.887Z,49.50
2019-06-01T09:11:51.586Z,48.50
2019-06-01T09:14:18.179Z,49.00
2019-06-01T09:16:44.738Z,49.40
2019-06-01T09:19:11.790Z,47.50
2019-06-01T09:21:38.447Z,49.20
2019-06-01T09:24:05.111Z,48.30
2019-06-01T09:26:32.023Z,49.80
2019-06-01T09:28:58.596Z,50.30
2019-06-01T09:31:26.287Z,50.10
2019-06-01T09:33:52.970Z,51.00
2019-06-01T09:36:19.553Z,50.10
2019-06-01T09:38:46.103Z,51.10
2019-06-01T09:41:12.788Z,49.90
2019-06-01T09:43:39.306Z,49.90
2019-06-01T09:46:06.045Z,50.10
2019-06-01T09:48:33.566Z,49.80
2019-06-01T09:51:00.134Z,50.20
2019-06-01T09:53:27.500Z,50.60
2019-06-01T09:55:55.104Z,49.60
2019-06-01T09:58:21.771Z,48.60
2019-06-01T10:00:48.385Z,47.90
2019-06-01T10:03:15.047Z,48.20
2019-06-01T10:05:41.575Z,48.00
2019-06-01T10:08:08.116Z,48.60
2019-06-01T10:10:35.910Z,48.50
2019-06-01T10:13:02.477Z,48.40
2019-06-01T10:15:30.152Z,48.80
2019-06-01T10:17:56.739Z,49.10
2019-06-01T10:20:23.283Z,48.30
2019-06-01T10:22:49.817Z,46.20
2019-06-01T10:25:16.410Z,47.10
2019-06-01T10:27:42.991Z,47.10
2019-06-01T10:30:10.585Z,47.60
2019-06-01T10:32:38.060Z,47.00
2019-06-01T10:35:06.269Z,47.40
2019-06-01T10:37:33.337Z,47.00
2019-06-01T10:40:00.203Z,46.20
2019-06-01T10:42:26.690Z,46.20
2019-06-01T10:44:53.222Z,45.60
2019-06-01T10:47:19.765Z,46.10
2019-06-01T10:49:48.316Z,45.50
2019-06-01T10:52:14.848Z,45.00
2019-06-01T10:54:42.483Z,44.40
2019-06-01T10:57:14.244Z,44.60
2019-06-01T10:59:40.783Z,45.00
2019-06-01T11:02:07.316Z,43.90
2019-06-01T11:04:34.878Z,44.50
2019-06-01T11:07:01.429Z,44.50
2019-06-01T11:09:28.088Z,42.20
2019-06-01T11:11:54.611Z,44.80
2019-06-01T11:14:21.153Z,44.20
2019-06-01T11:16:54.869Z,43.20
2019-06-01T11:19:16.500Z,42.20
2019-06-01T11:21:43.761Z,41.30
2019-06-01T11:24:10.587Z,42.20
2019-06-01T11:26:37.618Z,42.00
2019-06-01T11:29:04.394Z,43.00
2019-06-01T11:31:33.824Z,43.80
2019-06-01T11:34:00.560Z,42.40
2019-06-01T11:36:27.145Z,42.50
2019-06-01T11:38:53.776Z,42.40
2019-06-01T11:41:20.336Z,42.00
2019-06-01T11:43:46.950Z,42.40
2019-06-01T11:46:13.538Z,42.20
2019-06-01T11:48:41.429Z,41.80
2019-06-01T11:51:08.161Z,43.60
2019-06-01T11:53:35.119Z,42.50
2019-06-01T11:56:04.488Z,42.90
2019-06-01T11:58:31.006Z,41.60
2019-06-01T12:00:57.545Z,42.80
2019-06-01T12:03:24.071Z,41.80
2019-06-01T12:05:50.662Z,43.10
2019-06-01T12:08:17.241Z,42.40
2019-06-01T12:10:45.326Z,42.30
2019-06-01T12:13:11.983Z,42.20
2019-06-01T12:15:38.564Z,42.10
2019-06-01T12:18:05.146Z,41.70
2019-06-01T12:20:31.739Z,42.70
2019-06-01T12:22:58.257Z,40.70
2019-06-01T12:25:24.805Z,42.30
2019-06-01T12:27:51.325Z,42.10
2019-06-01T12:30:18.717Z,42.50
2019-06-01T12:32:46.406Z,42.70
2019-06-01T12:35:13.041Z,41.50
2019-06-01T12:37:58.398Z,41.60
2019-06-01T12:40:08.514Z,40.90
2019-06-01T12:42:35.047Z,41.50
2019-06-01T12:45:03.665Z,41.20
2019-06-01T12:47:30.251Z,41.20
2019-06-01T12:49:57.788Z,41.80
2019-06-01T12:52:24.347Z,41.20
2019-06-01T12:54:50.871Z,42.40
2019-06-01T12:57:17.407Z,42.60
2019-06-01T12:59:45.138Z,41.70
2019-06-01T13:02:11.873Z,42.40
2019-06-01T13:04:38.393Z,41.80
2019-06-01T13:07:04.976Z,42.30
2019-06-01T13:09:31.599Z,42.60
2019-06-01T13:11:58.130Z,42.80
2019-06-01T13:14:24.661Z,41.90
2019-06-01T13:17:06.347Z,41.30
2019-06-01T13:19:19.675Z,42.10
2019-06-01T13:21:47.457Z,42.80
2019-06-01T13:24:14.096Z,43.50
2019-06-01T13:26:41.859Z,44.10
2019-06-01T13:29:08.394Z,45.00
2019-06-01T13:31:34.925Z,45.70
2019-06-01T13:34:01.453Z,45.80
2019-06-01T13:36:27.988Z,46.00
2019-06-01T13:38:54.533Z,45.80
2019-06-01T13:41:21.185Z,45.90
2019-06-01T13:43:49.740Z,46.60
2019-06-01T13:46:16.276Z,46.90
2019-06-01T13:48:43.589Z,46.80
2019-06-01T13:51:10.263Z,46.50
2019-06-01T13:53:37.108Z,46.50
2019-06-01T13:56:03.737Z,45.70
2019-06-01T13:58:30.300Z,44.60
2019-06-01T14:00:56.826Z,44.30
2019-06-01T14:03:24.445Z,44.60
2019-06-01T14:05:51.017Z,45.00
2019-06-01T14:08:28.642Z,45.00
2019-06-01T14:10:47.159Z,43.90
2019-06-01T14:13:13.865Z,44.30
2019-06-01T14:15:40.509Z,46.20
2019-06-01T14:18:07.061Z,45.70
2019-06-01T14:20:33.616Z,45.40
2019-06-01T14:23:00.232Z,45.20
2019-06-01T14:25:26.859Z,45.60
2019-06-01T14:27:54.408Z,45.50
2019-06-01T14:30:24.025Z,45.30
2019-06-01T14:32:50.309Z,45.70
2019-06-01T14:35:16.929Z,46.90
2019-06-01T14:37:43.466Z,47.00
2019-06-01T14:40:13.647Z,46.20
2019-06-01T14:42:40.184Z,46.70
2019-06-01T14:45:07.311Z,47.10
2019-06-01T14:47:33.896Z,46.30
2019-06-01T14:50:00.437Z,46.50
2019-06-01T14:52:26.974Z,46.20
2019-06-01T14:54:53.760Z,45.80
2019-06-01T14:57:20.357Z,46.20
2019-06-01T14:59:47.831Z,45.90
2019-06-01T15:02:14.433Z,45.50
2019-06-01T15:04:40.953Z,45.50
2019-06-01T15:07:08.546Z,45.20
2019-06-01T15:09:35.072Z,44.90
2019-06-01T15:12:03.457Z,44.70
2019-06-01T15:14:30.023Z,45.40
2019-06-01T15:16:57.919Z,44.70
2019-06-01T15:19:24.702Z,45.60
2019-06-01T15:21:52.127Z,45.00
2019-06-01T15:24:20.893Z,44.80
2019-06-01T15:26:48.432Z,44.70
2019-06-01T15:29:14.973Z,44.60
2019-06-01T15:31:41.492Z,44.90
2019-06-01T15:34:08.116Z,45.20
2019-06-01T15:36:34.649Z,44.70
2019-06-01T15:39:02.258Z,45.30
2019-06-01T15:41:29.001Z,45.20
2019-06-01T15:43:55.543Z,45.10
2019-06-01T15:46:22.077Z,45.30
2019-06-01T15:48:48.614Z,45.10
2019-06-01T15:51:15.242Z,45.20
2019-06-01T15:53:41.789Z,45.30
2019-06-01T15:56:08.312Z,45.10
2019-06-01T15:58:49.450Z,45.20
2019-06-01T16:01:03.720Z,45.10
2019-06-01T16:03:34.019Z,45.00
2019-06-01T16:05:59.154Z,45.00
2019-06-01T16:08:25.942Z,45.20
2019-06-01T16:10:53.133Z,45.10
2019-06-01T16:13:19.874Z,45.40
2019-06-01T16:15:46.438Z,45.60
2019-06-01T16:18:13.061Z,45.50
2019-06-01T16:20:39.608Z,45.50
2019-06-01T16:23:06.161Z,45.10
2019-06-01T16:25:32.700Z,45.00
2019-06-01T16:28:00.740Z,44.80
2019-06-01T16:30:27.592Z,44.60
2019-06-01T16:32:54.461Z,45.00
2019-06-01T16:35:21.081Z,45.20
2019-06-01T16:37:47.620Z,45.20
2019-06-01T16:40:14.359Z,45.50
2019-06-01T16:42:40.987Z,45.10
2019-06-01T16:45:08.325Z,45.10
2019-06-01T16:47:34.858Z,44.70
2019-06-01T16:50:01.976Z,44.70
2019-06-01T16:52:28.627Z,44.40
2019-06-01T16:54:56.179Z,44.70
2019-06-01T16:57:22.857Z,45.00
2019-06-01T16:59:49.417Z,44.90
2019-06-01T17:02:16.056Z,45.40
2019-06-01T17:04:42.627Z,45.30
2019-06-01T17:07:09.196Z,45.30
2019-06-01T17:09:35.875Z,45.10
2019-06-01T17:12:03.129Z,45.10
2019-06-01T17:14:29.998Z,45.10
2019-06-01T17:16:57.114Z,44.90
2019-06-01T17:19:23.795Z,45.10
2019-06-01T17:21:50.342Z,44.70
2019-06-01T17:24:16.910Z,44.60
2019-06-01T17:26:43.509Z,44.80
2019-06-01T17:29:10.109Z,44.70
2019-06-01T17:31:51.304Z,44.70
2019-06-01T17:34:06.515Z,44.60
2019-06-01T17:36:33.252Z,44.60
2019-06-01T17:38:59.865Z,44.50
2019-06-01T17:41:26.430Z,44.70
2019-06-01T17:43:52.967Z,44.80
2019-06-01T17:46:21.567Z,44.20
2019-06-01T17:48:48.106Z,44.50
2019-06-01T17:51:14.651Z,44.60
2019-06-01T17:53:41.353Z,45.00
2019-06-01T17:56:08.245Z,45.00
2019-06-01T17:58:34.780Z,45.20
2019-06-01T18:01:01.868Z,45.20
2019-06-01T18:03:29.246Z,45.30
2019-06-01T18:05:55.876Z,45.60
2019-06-01T18:08:22.599Z,45.60
2019-06-01T18:10:54.395Z,45.60
2019-06-01T18:13:17.709Z,45.80
2019-06-01T18:15:44.251Z,45.90
2019-06-01T18:18:10.779Z,46.00
2019-06-01T18:20:37.525Z,46.10
2019-06-01T18:23:05.647Z,46.00
2019-06-01T18:25:32.814Z,46.20
2019-06-01T18:27:59.376Z,46.30
2019-06-01T18:30:26.347Z,46.40
2019-06-01T18:32:54.489Z,46.50
2019-06-01T18:35:21.212Z,46.60
2019-06-01T18:37:48.047Z,46.70
2019-06-01T18:40:20.074Z,46.80
2019-06-01T18:42:48.299Z,47.00
2019-06-01T18:45:15.840Z,47.20
2019-06-01T18:47:42.458Z,47.30
2019-06-01T18:50:15.528Z,47.50
2019-06-01T18:52:39.726Z,47.80
2019-06-01T18:55:06.633Z,48.00
2019-06-01T18:57:36.286Z,48.20
2019-06-01T19:00:10.149Z,48.30
2019-06-01T19:02:34.581Z,48.50
2019-06-01T19:05:01.255Z,48.70
2019-06-01T19:07:27.794Z,48.90
2019-06-01T19:09:54.323Z,49.10
2019-06-01T19:12:24.337Z,49.30
2019-06-01T19:14:49.296Z,49.50
2019-06-01T19:17:16.580Z,49.70
2019-06-01T19:19:43.264Z,49.70
2019-06-01T19:22:10.420Z,49.80
2019-06-01T19:24:37.029Z,50.40
2019-06-01T19:27:03.572Z,50.10
2019-06-01T19:29:30.110Z,50.30
2019-06-01T19:31:56.745Z,50.70
2019-06-01T19:34:23.277Z,50.70
2019-06-01T19:36:51.833Z,50.80
2019-06-01T19:39:19.019Z,51.00
2019-06-01T19:41:45.633Z,51.10
2019-06-01T19:44:13.279Z,51.20
2019-06-01T19:46:40.154Z,51.40
2019-06-01T19:49:08.284Z,51.50
2019-06-01T19:51:35.990Z,51.70
2019-06-01T19:54:05.374Z,51.80
2019-06-01T19:56:31.923Z,51.80
2019-06-01T19:58:59.505Z,52.00
2019-06-01T20:01:27.001Z,52.10
2019-06-01T20:03:54.198Z,52.10
2019-06-01T20:06:21.412Z,52.20
2019-06-01T20:08:50.976Z,52.40
2019-06-01T20:11:19.290Z,52.50
2019-06-01T20:13:46.168Z,52.60
2019-06-01T20:16:12.807Z,52.60
2019-06-01T20:18:39.382Z,52.90
2019-06-01T20:21:05.899Z,52.80
2019-06-01T20:23:32.463Z,53.00
2019-06-01T20:25:59.059Z,53.20
2019-06-01T20:28:25.607Z,53.30
2019-06-01T20:30:52.208Z,53.40
2019-06-01T20:33:20.284Z,53.50
2019-06-01T20:35:47.166Z,53.50
2019-06-01T20:38:14.390Z,53.70
2019-06-01T20:40:41.011Z,53.80
2019-06-01T20:43:07.543Z,54.00
2019-06-01T20:45:34.068Z,54.00
2019-06-01T20:48:00.731Z,54.30
2019-06-01T20:50:27.254Z,54.30
2019-06-01T20:52:53.900Z,54.40
2019-06-01T20:55:21.240Z,54.60
2019-06-01T20:57:47.863Z,54.70
2019-06-01T21:00:15.936Z,54.80
2019-06-01T21:02:42.731Z,54.80
2019-06-01T21:05:09.701Z,55.00
2019-06-01T21:07:36.310Z,54.80
2019-06-01T21:10:07.029Z,55.10
2019-06-01T21:12:44.669Z,55.10
2019-06-01T21:15:03.901Z,55.20
2019-06-01T21:17:30.435Z,55.30
2019-06-01T21:19:57.016Z,55.40
2019-06-01T21:22:24.824Z,55.50
2019-06-01T21:24:51.482Z,55.60
2019-06-01T21:27:18.524Z,55.70
2019-06-01T21:29:45.051Z,55.70
2019-06-01T21:32:11.578Z,55.70
2019-06-01T21:34:38.118Z,55.80
2019-06-01T21:37:04.639Z,55.90
2019-06-01T21:39:31.192Z,55.80
2019-06-01T21:41:57.742Z,55.80
2019-06-01T21:44:24.331Z,55.70
2019-06-01T21:46:50.944Z,55.60
2019-06-01T21:49:17.738Z,55.90
2019-06-01T21:51:44.322Z,55.80
2019-06-01T21:54:10.845Z,55.80
2019-06-01T21:56:37.564Z,55.80
2019-06-01T21:59:04.103Z,56.10
2019-06-01T22:01:30.636Z,56.00
2019-06-01T22:03:57.161Z,56.10
2019-06-01T22:06:23.713Z,56.00
2019-06-01T22:08:52.624Z,56.10
2019-06-01T22:11:19.393Z,56.00
2019-06-01T22:13:45.995Z,56.20
2019-06-01T22:16:12.616Z,56.00
2019-06-01T22:18:39.178Z,56.20
2019-06-01T22:21:05.731Z,56.00
2019-06-01T22:23:32.284Z,55.90
2019-06-01T22:25:58.805Z,55.80
2019-06-01T22:28:26.341Z,56.00
2019-06-01T22:30:52.869Z,55.90
2019-06-01T22:33:21.046Z,56.00
2019-06-01T22:35:47.866Z,56.10
2019-06-01T22:38:14.445Z,56.10
2019-06-01T22:40:40.975Z,55.90
2019-06-01T22:43:07.510Z,56.00
2019-06-01T22:45:34.149Z,56.10
2019-06-01T22:48:00.701Z,55.90
2019-06-01T22:50:27.237Z,55.90
2019-06-01T22:52:53.760Z,56.00
2019-06-01T22:55:20.289Z,56.20
2019-06-01T22:57:46.826Z,56.10
2019-06-01T23:00:14.474Z,56.20
2019-06-01T23:02:41.081Z,56.30
2019-06-01T23:05:08.010Z,56.40
2019-06-01T23:07:34.535Z,56.40
2019-06-01T23:10:01.273Z,56.40
2019-06-01T23:12:28.057Z,56.50
2019-06-01T23:14:54.594Z,56.60
2019-06-01T23:17:21.555Z,56.50
2019-06-01T23:19:48.156Z,56.40
2019-06-01T23:22:14.730Z,56.10
2019-06-01T23:24:41.375Z,56.30
2019-06-01T23:27:07.897Z,56.20
2019-06-01T23:29:34.434Z,56.10
2019-06-01T23:32:00.960Z,56.30
2019-06-01T23:34:28.714Z,56.50
2019-06-01T23:36:55.341Z,56.40
2019-06-01T23:39:22.693Z,56.60
2019-06-01T23:41:49.452Z,56.40
2019-06-01T23:44:15.989Z,56.20
2019-06-01T23:46:42.514Z,56.50
2019-06-01T23:49:09.060Z,56.60
2019-06-01T23:51:35.592Z,56.70
2019-06-01T23:54:02.135Z,56.90
2019-06-01T23:56:29.754Z,56.70
2019-06-01T23:58:56.407Z,56.80
